Time;durP1;ratioP1;P1;durP2;ratioP2;P2;SDS_P1;SDS_P2;PMS_P1;PMS_P2;Temp;Humidity;BMP_temperature;BMP_pressure;BME280_temperature;BME280_humidity;BME280_pressure;Samples;Min_cycle;Max_cycle;Signal;HPM_P1;HPM_P2
2021/05/23 00:00:00;;;;;;;3.33;2.10;;;;;;;18.73;57.11;100057.91;2078161;28;20494;-62
2021/05/23 00:01:00;;;;;;;2.00;1.60;;;;;;;18.74;57.17;100056.94;2071547;28;20034;-61
2021/05/23 00:02:01;;;;;;;2.43;1.90;;;;;;;18.74;57.22;100061.50;2072027;28;20066;-62
2021/05/23 00:03:05;;;;;;;2.97;1.87;;;;;;;18.72;57.13;100058.94;2077965;28;20033;-62
2021/05/23 00:04:05;;;;;;;2.15;1.65;;;;;;;18.72;57.13;100061.69;2070835;28;20073;-62
2021/05/23 00:05:08;;;;;;;2.60;1.50;;;;;;;18.72;57.30;100061.69;2070938;28;20094;-62
2021/05/23 00:06:09;;;;;;;2.70;1.77;;;;;;;18.72;57.28;100056.22;2071127;28;20021;-62
2021/05/23 00:07:11;;;;;;;2.83;2.00;;;;;;;18.72;57.14;100055.34;2070951;28;20037;-62
2021/05/23 00:08:15;;;;;;;2.35;1.70;;;;;;;18.71;57.17;100057.19;2069927;28;20132;-62
2021/05/23 00:09:16;;;;;;;2.60;1.83;;;;;;;18.72;57.19;100056.22;2069602;28;20548;-62
2021/05/23 00:10:18;;;;;;;2.97;2.03;;;;;;;18.72;57.20;100050.75;2068649;28;20414;-62
2021/05/23 00:11:18;;;;;;;2.20;1.88;;;;;;;18.72;57.09;100050.75;2071377;28;20056;-62
2021/05/23 00:12:19;;;;;;;3.33;2.33;;;;;;;18.72;57.23;100053.47;2069569;28;20116;-62
2021/05/23 00:13:25;;;;;;;2.93;1.73;;;;;;;18.71;57.23;100057.19;2069663;28;20026;-61
2021/05/23 00:14:26;;;;;;;2.28;1.60;;;;;;;18.72;57.32;100049.91;2070832;28;20122;-62
2021/05/23 00:15:37;;;;;;;3.60;1.80;;;;;;;18.71;57.17;100053.63;2066440;28;20054;-62
2021/05/23 00:16:40;;;;;;;2.92;2.00;;;;;;;18.70;57.27;100047.31;2068170;28;20026;-62
2021/05/23 00:17:40;;;;;;;2.67;2.00;;;;;;;18.70;57.19;100047.31;2069288;28;20489;-62
2021/05/23 00:18:44;;;;;;;2.23;1.80;;;;;;;18.70;57.30;100041.84;2065107;28;20389;-62
2021/05/23 00:19:44;;;;;;;2.42;2.00;;;;;;;18.70;57.27;100050.03;2068527;28;20036;-62
2021/05/23 00:20:45;;;;;;;3.50;1.60;;;;;;;18.70;57.25;100047.31;2069495;28;20072;-62
2021/05/23 00:21:46;;;;;;;2.40;1.97;;;;;;;18.71;57.30;100049.00;2071145;28;20064;-62
2021/05/23 00:22:46;;;;;;;2.43;1.57;;;;;;;18.71;57.17;100045.44;2072191;28;20276;-62
2021/05/23 00:23:47;;;;;;;3.77;1.87;;;;;;;18.71;57.25;100040.81;2074780;28;20041;-61
2021/05/23 00:24:47;;;;;;;2.30;1.80;;;;;;;18.72;57.25;100045.28;2071134;28;20046;-61
2021/05/23 00:25:48;;;;;;;2.20;1.83;;;;;;;18.71;57.25;100049.00;2071350;28;20021;-62
2021/05/23 00:26:49;;;;;;;3.23;1.97;;;;;;;18.71;57.18;100038.09;2071352;28;20102;-62
2021/05/23 00:27:50;;;;;;;3.50;1.70;;;;;;;18.70;57.28;100036.38;2070408;28;20041;-62
2021/05/23 00:28:50;;;;;;;1.85;1.60;;;;;;;18.70;57.14;100030.91;2065353;28;20029;-62
2021/05/23 00:29:51;;;;;;;2.13;1.80;;;;;;;18.69;57.18;100034.69;2070821;28;20140;-61
2021/05/23 00:30:51;;;;;;;2.87;1.67;;;;;;;18.70;57.24;100025.47;2069098;28;20113;-62
2021/05/23 00:31:53;;;;;;;2.30;1.73;;;;;;;18.70;57.17;100039.13;2071190;28;20036;-62
2021/05/23 00:32:53;;;;;;;2.97;1.80;;;;;;;18.70;57.19;100030.91;2068955;28;20576;-62
2021/05/23 00:33:54;;;;;;;2.67;1.80;;;;;;;18.70;57.23;100035.53;2062880;28;20073;-62
2021/05/23 00:34:54;;;;;;;2.00;1.40;;;;;;;18.70;57.28;100027.34;2068087;28;20030;-62
2021/05/23 00:35:55;;;;;;;2.00;1.70;;;;;;;18.69;57.20;100029.22;2070810;28;20040;-62
2021/05/23 00:36:55;;;;;;;2.50;1.97;;;;;;;18.68;57.19;100024.75;2070706;28;20050;-62
2021/05/23 00:37:56;;;;;;;2.03;1.60;;;;;;;18.69;57.18;100034.69;2071231;28;20060;-62
2021/05/23 00:38:56;;;;;;;2.63;2.00;;;;;;;18.70;57.30;100035.53;2064747;28;20088;-62
2021/05/23 00:39:57;;;;;;;2.33;1.97;;;;;;;18.70;57.26;100036.38;2076476;28;20029;-62
2021/05/23 00:40:58;;;;;;;3.03;1.93;;;;;;;18.70;57.31;100041.00;2069998;28;20043;-62
2021/05/23 00:41:58;;;;;;;2.17;1.80;;;;;;;18.69;57.37;100039.25;2073156;28;20030;-62
2021/05/23 00:42:59;;;;;;;3.77;1.90;;;;;;;18.70;57.24;100052.75;2068956;28;20031;-62
2021/05/23 00:44:00;;;;;;;2.60;1.67;;;;;;;18.68;57.20;100049.31;2068238;28;20117;-62
2021/05/23 00:45:03;;;;;;;3.05;2.20;;;;;;;18.69;57.34;100052.91;2071040;28;20038;-62
2021/05/23 00:46:03;;;;;;;3.38;1.83;;;;;;;18.69;57.23;100056.53;2067056;28;20025;-61
2021/05/23 00:47:04;;;;;;;1.97;1.50;;;;;;;18.70;57.38;100058.22;2065773;28;20045;-62
2021/05/23 00:48:05;;;;;;;2.00;1.60;;;;;;;18.69;57.27;100053.78;2069090;28;20036;-62
2021/05/23 00:49:06;;;;;;;3.92;1.90;;;;;;;18.69;57.30;100047.44;2071071;28;20018;-62
2021/05/23 00:50:08;;;;;;;2.93;1.53;;;;;;;18.67;57.30;100044.88;2072252;28;20029;-62
2021/05/23 00:51:09;;;;;;;2.53;1.80;;;;;;;18.68;57.36;100043.84;2066061;28;20041;-61
2021/05/23 00:52:11;;;;;;;2.73;1.90;;;;;;;18.67;57.35;100041.25;2070971;28;20105;-62
2021/05/23 00:53:12;;;;;;;1.95;1.48;;;;;;;18.68;57.29;100041.13;2070173;28;20061;-62
2021/05/23 00:54:12;;;;;;;3.47;2.20;;;;;;;18.68;57.38;100043.00;2070653;28;20041;-61
2021/05/23 00:55:13;;;;;;;1.97;1.63;;;;;;;18.67;57.27;100041.25;2079130;28;20267;-62
2021/05/23 00:56:17;;;;;;;2.75;1.83;;;;;;;18.66;57.26;100040.41;2072435;28;20228;-62
2021/05/23 00:57:18;;;;;;;2.63;1.63;;;;;;;18.67;57.35;100042.16;2062257;28;20026;-62
2021/05/23 00:58:19;;;;;;;2.10;1.53;;;;;;;18.67;57.36;100036.69;2062971;28;20114;-61
2021/05/23 00:59:20;;;;;;;2.45;1.88;;;;;;;18.67;57.39;100042.16;2070671;28;20493;-61
2021/05/23 01:00:52;;;;;;;2.63;1.50;;;;;;;18.65;57.45;100044.16;2069940;28;20571;-62
2021/05/23 01:01:56;;;;;;;2.78;1.85;;;;;;;18.64;57.51;100034.22;2043509;28;20479;-61
2021/05/23 01:02:59;;;;;;;2.50;1.73;;;;;;;18.65;57.33;100038.69;2069746;28;20033;-62
2021/05/23 01:04:00;;;;;;;3.53;1.70;;;;;;;18.66;57.39;100040.41;2070778;28;20045;-62
2021/05/23 01:05:00;;;;;;;2.40;1.67;;;;;;;18.67;57.47;100041.25;2070886;28;20492;-63
2021/05/23 01:06:08;;;;;;;2.07;1.47;;;;;;;18.67;57.29;100042.16;2070904;28;20279;-62
2021/05/23 01:07:09;;;;;;;2.17;1.67;;;;;;;18.67;57.40;100041.25;2074566;28;20524;-62
2021/05/23 01:08:09;;;;;;;2.20;1.70;;;;;;;18.67;57.30;100047.63;2070604;28;20548;-62
2021/05/23 01:09:10;;;;;;;2.27;1.70;;;;;;;18.66;57.28;100040.41;2070371;28;20071;-62
2021/05/23 01:10:17;;;;;;;1.97;1.47;;;;;;;18.66;57.25;100045.88;2073548;28;20531;-62
2021/05/23 01:11:18;;;;;;;2.03;1.80;;;;;;;18.66;57.29;100051.31;2068954;28;20021;-62
2021/05/23 01:13:00;;;;;;;2.33;1.70;;;;;;;18.63;57.52;100046.19;2069051;28;20029;-62
2021/05/23 01:14:00;;;;;;;2.53;1.60;;;;;;;18.64;57.40;100047.88;2070120;28;20515;-63
2021/05/23 01:15:02;;;;;;;2.60;1.70;;;;;;;18.64;57.32;100047.88;2071264;28;20561;-62
2021/05/23 01:16:05;;;;;;;2.03;1.48;;;;;;;18.63;57.42;100046.19;2068084;28;20110;-62
2021/05/23 01:17:08;;;;;;;1.95;1.50;;;;;;;18.64;57.44;100050.63;2070609;28;20101;-62
2021/05/23 01:18:14;;;;;;;2.47;1.90;;;;;;;18.65;57.53;100046.91;2070330;28;20037;-61
2021/05/23 01:19:29;;;;;;;2.30;1.40;;;;;;;18.65;57.42;100052.34;2069742;28;20049;-62
2021/05/23 01:21:05;;;;;;;2.92;1.83;;;;;;;18.65;57.48;100049.63;2070818;28;20496;-62
2021/05/23 01:22:25;;;;;;;1.70;1.40;;;;;;;18.60;57.52;100041.03;2030143;29;20054;-62
2021/05/23 01:23:34;;;;;;;3.28;1.88;;;;;;;18.62;57.41;100049.94;2070831;28;20176;-62
2021/05/23 01:24:40;;;;;;;2.55;1.80;;;;;;;18.62;57.56;100045.31;2070889;28;20049;-62
2021/05/23 01:25:45;;;;;;;3.25;2.03;;;;;;;18.62;57.44;100044.47;2061567;28;20444;-62
2021/05/23 01:26:52;;;;;;;2.10;1.55;;;;;;;18.63;57.49;100043.44;2062769;28;20030;-61
2021/05/23 01:27:53;;;;;;;3.13;1.83;;;;;;;18.63;57.38;100041.56;2061885;28;20030;-62
2021/05/23 01:28:58;;;;;;;2.17;1.42;;;;;;;18.64;57.49;100050.63;2069813;28;20072;-62
2021/05/23 01:29:59;;;;;;;3.40;1.77;;;;;;;18.63;57.38;100035.25;2061559;28;20032;-62
2021/05/23 01:31:00;;;;;;;2.55;1.63;;;;;;;18.64;57.33;100039.69;2067191;28;20117;-62
2021/05/23 01:32:01;;;;;;;2.55;1.67;;;;;;;18.64;57.53;100036.97;2070711;28;20913;-63
2021/05/23 01:33:06;;;;;;;2.63;1.83;;;;;;;18.64;57.31;100026.03;2070501;28;20456;-62
2021/05/23 01:34:08;;;;;;;3.28;1.73;;;;;;;18.63;57.40;100033.38;2071023;28;20034;-62
2021/05/23 01:35:16;;;;;;;2.90;2.15;;;;;;;18.64;57.42;100034.22;2070246;28;20022;-62
2021/05/23 01:36:17;;;;;;;2.95;1.70;;;;;;;18.64;57.40;100031.50;2067312;28;20030;-62
2021/05/23 01:37:23;;;;;;;2.37;1.80;;;;;;;18.64;57.51;100036.97;2065988;28;20065;-62
2021/05/23 01:38:25;;;;;;;3.05;1.95;;;;;;;18.62;57.45;100028.94;2068997;28;20743;-61
2021/05/23 01:39:26;;;;;;;2.53;1.85;;;;;;;18.63;57.45;100040.72;2071818;28;20133;-62
2021/05/23 01:40:29;;;;;;;2.50;1.83;;;;;;;18.64;57.34;100036.97;2059009;28;20037;-62
2021/05/23 01:41:30;;;;;;;2.38;1.67;;;;;;;18.65;57.52;100033.25;2060882;28;20028;-62
2021/05/23 01:42:32;;;;;;;3.58;1.85;;;;;;;18.66;57.44;100034.09;2061556;28;20037;-62
2021/05/23 01:43:34;;;;;;;2.65;1.50;;;;;;;18.64;57.36;100032.38;2058112;28;20038;-62
2021/05/23 01:44:35;;;;;;;2.38;1.70;;;;;;;18.63;57.41;100035.25;2065110;28;20070;-61
2021/05/23 01:45:36;;;;;;;3.47;1.50;;;;;;;18.62;57.46;100039.84;2067369;28;20026;-61
2021/05/23 01:46:38;;;;;;;1.90;1.38;;;;;;;18.61;57.52;100029.94;2071175;28;20619;-62
2021/05/23 01:47:39;;;;;;;2.15;1.80;;;;;;;18.61;57.42;100035.38;2069646;28;20093;-62
2021/05/23 01:48:40;;;;;;;2.05;1.63;;;;;;;18.61;57.44;100034.53;2068170;28;20131;-62
2021/05/23 01:49:41;;;;;;;1.65;1.33;;;;;;;18.60;57.44;100032.81;2067649;28;20083;-62
2021/05/23 01:50:42;;;;;;;1.37;1.10;;;;;;;18.61;57.50;100032.66;2067477;28;20115;-61
2021/05/23 01:51:42;;;;;;;2.87;1.70;;;;;;;18.60;57.41;100032.81;2068026;28;20360;-62
2021/05/23 01:53:03;;;;;;;1.97;1.40;;;;;;;18.59;57.62;100034.72;2068116;28;20461;-62
2021/05/23 01:54:04;;;;;;;2.28;1.60;;;;;;;18.59;57.54;100033.81;2064083;28;21564;-62
2021/05/23 01:55:05;;;;;;;2.70;2.33;;;;;;;18.59;57.67;100037.44;2068679;28;20507;-62
2021/05/23 01:56:09;;;;;;;3.13;1.77;;;;;;;18.59;57.58;100039.28;2068505;28;20034;-62
2021/05/23 01:57:09;;;;;;;2.88;1.67;;;;;;;18.59;57.59;100031.97;2066978;28;20030;-62
2021/05/23 01:58:10;;;;;;;2.93;1.77;;;;;;;18.60;57.65;100041.88;2069172;28;20041;-62
2021/05/23 01:59:10;;;;;;;2.07;1.83;;;;;;;18.60;57.66;100038.28;2067608;28;20033;-62
2021/05/23 02:00:13;;;;;;;2.60;1.53;;;;;;;18.60;57.63;100043.75;2067851;28;20034;-61
2021/05/23 02:01:13;;;;;;;2.08;1.65;;;;;;;18.60;57.65;100049.22;2068974;28;20048;-62
2021/05/23 02:02:14;;;;;;;2.73;1.83;;;;;;;18.59;57.71;100037.44;2071105;28;20030;-62
2021/05/23 02:03:16;;;;;;;2.20;1.73;;;;;;;18.60;57.62;100041.03;2070093;28;20041;-62
2021/05/23 02:04:16;;;;;;;2.38;1.88;;;;;;;18.59;57.69;100033.81;2067681;28;20035;-62
2021/05/23 02:05:17;;;;;;;2.13;1.40;;;;;;;18.60;57.60;100038.28;2067427;28;20033;-61
2021/05/23 02:06:18;;;;;;;2.10;1.47;;;;;;;18.59;57.74;100039.28;2072367;28;20014;-62
2021/05/23 02:07:18;;;;;;;2.27;1.43;;;;;;;18.61;57.58;100040.00;2071098;28;20617;-61
2021/05/23 02:08:21;;;;;;;2.43;1.70;;;;;;;18.63;57.60;100037.97;2069731;28;20560;-61
2021/05/23 02:09:21;;;;;;;2.85;1.60;;;;;;;18.64;57.62;100039.69;2071199;28;20029;-62
2021/05/23 02:10:22;;;;;;;2.83;1.77;;;;;;;18.64;57.68;100034.22;2076863;28;20061;-62
2021/05/23 02:11:23;;;;;;;3.37;1.67;;;;;;;18.66;57.63;100037.69;2075624;28;20029;-62
2021/05/23 02:12:23;;;;;;;2.83;1.57;;;;;;;18.66;57.78;100034.94;2079731;28;20033;-61
2021/05/23 02:13:25;;;;;;;2.60;1.73;;;;;;;18.67;57.89;100041.25;2079544;28;20752;-62
2021/05/23 02:14:26;;;;;;;4.07;1.95;;;;;;;18.66;57.87;100034.94;2079246;28;20030;-61
2021/05/23 02:15:27;;;;;;;2.40;1.70;;;;;;;18.68;58.17;100035.66;2079783;28;20029;-62
2021/05/23 02:16:27;;;;;;;3.13;2.10;;;;;;;18.69;58.05;100044.72;2078974;28;20468;-62
2021/05/23 02:17:28;;;;;;;4.10;1.70;;;;;;;18.67;57.94;100031.22;2079676;28;20029;-62
2021/05/23 02:18:32;;;;;;;5.30;2.00;;;;;;;18.69;57.84;100033.78;2083922;28;20040;-62
2021/05/23 02:19:32;;;;;;;4.75;1.90;;;;;;;18.69;57.99;100034.69;2082566;28;20054;-62
2021/05/23 02:20:35;;;;;;;3.13;1.70;;;;;;;18.69;57.97;100033.78;2079386;28;20613;-62
2021/05/23 02:21:36;;;;;;;2.03;1.40;;;;;;;18.69;57.93;100034.69;2081205;28;20078;-61
2021/05/23 02:22:41;;;;;;;3.37;1.40;;;;;;;18.68;57.96;100032.94;2083131;28;20053;-62
2021/05/23 02:23:57;;;;;;;2.70;1.60;;;;;;;18.69;57.98;100029.22;2079429;28;20021;-61
2021/05/23 02:24:57;;;;;;;3.42;1.70;;;;;;;18.67;58.02;100028.50;2079585;28;20084;-62
2021/05/23 02:25:58;;;;;;;5.63;1.47;;;;;;;18.68;58.01;100022.00;2084658;28;20499;-61
2021/05/23 02:26:58;;;;;;;3.33;1.70;;;;;;;18.68;58.11;100030.19;2079558;28;20068;-61
2021/05/23 02:28:01;;;;;;;2.37;1.80;;;;;;;18.69;57.95;100017.41;2071277;28;20435;-61
2021/05/23 02:29:02;;;;;;;3.55;1.50;;;;;;;18.70;58.11;100025.47;2074849;28;20052;-62
2021/05/23 02:30:06;;;;;;;3.00;1.87;;;;;;;18.68;58.04;100027.47;2076112;28;20033;-62
2021/05/23 02:31:07;;;;;;;2.22;1.50;;;;;;;18.71;58.19;100027.16;2077804;28;20029;-62
2021/05/23 02:32:09;;;;;;;2.37;1.53;;;;;;;18.71;57.90;100027.16;2079543;28;20025;-61
2021/05/23 02:33:11;;;;;;;3.67;1.80;;;;;;;18.73;57.88;100027.88;2077467;28;20032;-62
2021/05/23 02:34:11;;;;;;;2.90;1.65;;;;;;;18.73;57.99;100025.16;2079827;28;20038;-62
2021/05/23 02:35:13;;;;;;;3.57;2.20;;;;;;;18.72;57.84;100023.44;2078265;28;20033;-62
2021/05/23 02:36:14;;;;;;;3.00;1.70;;;;;;;18.73;57.96;100032.50;2078504;28;20363;-62
2021/05/23 02:37:14;;;;;;;3.13;1.50;;;;;;;18.72;57.90;100028.06;2079511;28;20029;-62
2021/05/23 02:38:16;;;;;;;4.23;1.80;;;;;;;18.72;57.98;100028.06;2078750;28;20111;-62
2021/05/23 02:39:19;;;;;;;;;;;;;;;18.70;57.94;100035.53;2078824;28;20036;-62
2021/05/23 02:40:23;;;;;;;2.05;1.40;;;;;;;18.69;58.05;100029.22;2079262;28;19921;-62
2021/05/23 02:41:23;;;;;;;2.88;1.65;;;;;;;18.71;58.01;100032.63;2073249;28;20088;-62
2021/05/23 02:42:23;;;;;;;2.70;1.57;;;;;;;18.70;58.01;100032.81;2077089;28;20494;-62
2021/05/23 02:43:25;;;;;;;5.20;1.90;;;;;;;18.69;57.99;100034.69;2079087;28;20825;-62
2021/05/23 02:44:25;;;;;;;3.97;1.60;;;;;;;18.71;58.00;100027.16;2078000;28;20111;-62
2021/05/23 02:45:27;;;;;;;3.17;1.97;;;;;;;18.71;58.04;100029.03;2079700;28;20038;-62
2021/05/23 02:46:27;;;;;;;2.72;1.55;;;;;;;18.70;57.94;100036.38;2074945;28;20440;-61
2021/05/23 02:47:27;;;;;;;2.47;1.37;;;;;;;18.71;58.02;100038.09;2079233;28;20136;-62
2021/05/23 02:48:28;;;;;;;2.67;1.77;;;;;;;18.73;58.07;100041.53;2076604;28;20111;-62
2021/05/23 02:49:29;;;;;;;2.03;1.33;;;;;;;18.72;58.32;100039.84;2079212;28;20116;-61
2021/05/23 02:50:32;;;;;;;4.15;2.08;;;;;;;18.73;57.92;100038.81;2079000;28;20033;-61
2021/05/23 02:51:33;;;;;;;2.08;1.45;;;;;;;18.74;57.93;100037.81;2070592;28;20547;-61
2021/05/23 02:52:33;;;;;;;3.17;1.63;;;;;;;18.74;57.97;100043.28;2073730;28;20526;-62
2021/05/23 02:53:34;;;;;;;4.73;1.90;;;;;;;18.75;57.84;100046.88;2079545;28;20060;-62
2021/05/23 02:54:34;;;;;;;2.30;1.50;;;;;;;18.74;58.00;100043.28;2078513;28;20087;-61
2021/05/23 02:55:36;;;;;;;3.70;1.60;;;;;;;18.74;58.05;100043.28;2079049;28;20021;-61
2021/05/23 02:56:37;;;;;;;2.55;1.40;;;;;;;18.76;58.01;100049.47;2072647;28;20033;-62
2021/05/23 02:57:39;;;;;;;1.63;1.37;;;;;;;18.74;57.85;100043.28;2070409;28;20101;-62
2021/05/23 02:58:40;;;;;;;2.35;1.67;;;;;;;18.76;57.89;100041.25;2077735;28;20032;-61
2021/05/23 02:59:40;;;;;;;2.30;1.70;;;;;;;18.75;58.01;100053.19;2079970;28;20029;-61
2021/05/23 03:00:43;;;;;;;4.73;1.73;;;;;;;18.75;57.97;100047.72;2078097;28;20017;-61
2021/05/23 03:01:43;;;;;;;2.17;1.60;;;;;;;18.76;58.01;100041.25;2079700;28;20029;-61
2021/05/23 03:02:45;;;;;;;2.47;1.53;;;;;;;18.75;57.92;100041.41;2072272;28;20137;-61
2021/05/23 03:03:45;;;;;;;2.50;1.70;;;;;;;18.77;57.92;100037.53;2075587;28;20068;-61
2021/05/23 03:04:46;;;;;;;1.60;1.37;;;;;;;18.77;57.82;100043.00;2079179;28;20040;-61
2021/05/23 03:05:48;;;;;;;2.60;1.60;;;;;;;18.77;57.83;100053.06;2077680;28;20053;-61
2021/05/23 03:06:49;;;;;;;2.95;1.33;;;;;;;18.78;57.86;100050.19;2086791;28;20063;-61
2021/05/23 03:07:56;;;;;;;2.70;1.73;;;;;;;18.76;57.64;100046.72;2081417;28;20079;-61
2021/05/23 03:08:56;;;;;;;3.00;2.00;;;;;;;18.78;57.69;100061.09;2081903;28;20427;-61
2021/05/23 03:09:57;;;;;;;2.77;1.70;;;;;;;18.78;57.69;100047.44;2078716;28;20049;-62
2021/05/23 03:10:57;;;;;;;4.77;1.90;;;;;;;18.78;57.73;100044.72;2073895;28;20118;-61
2021/05/23 03:11:58;;;;;;;3.13;1.43;;;;;;;18.79;57.73;100051.91;2068450;28;20068;-61
2021/05/23 03:13:03;;;;;;;3.58;1.48;;;;;;;18.77;57.69;100053.94;2068724;28;20029;-61
2021/05/23 03:14:04;;;;;;;1.83;1.50;;;;;;;18.79;57.74;100053.75;2070470;28;20041;-61
2021/05/23 03:15:07;;;;;;;2.40;1.60;;;;;;;18.80;57.67;100053.63;2071020;28;20604;-62
2021/05/23 03:16:07;;;;;;;1.58;1.38;;;;;;;18.80;57.54;100053.63;2070837;28;20030;-61
2021/05/23 03:17:09;;;;;;;3.30;1.90;;;;;;;18.79;57.55;100053.75;2070644;28;20049;-61
2021/05/23 03:18:09;;;;;;;;;;;;;;;18.75;57.80;100049.59;2070824;28;20468;-61
2021/05/23 03:19:10;;;;;;;4.25;2.08;;;;;;;18.74;57.65;100054.19;2071087;28;19913;-61
2021/05/23 03:20:13;;;;;;;2.00;1.27;;;;;;;18.75;57.69;100052.31;2072087;28;20057;-61
2021/05/23 03:21:14;;;;;;;2.53;1.75;;;;;;;18.76;57.64;100054.91;2069664;28;20064;-62
2021/05/23 03:22:14;;;;;;;2.63;1.63;;;;;;;18.76;57.61;100052.19;2073365;28;20496;-61
2021/05/23 03:23:15;;;;;;;1.93;1.30;;;;;;;18.76;57.68;100054.91;2071465;28;20040;-61
2021/05/23 03:24:15;;;;;;;2.80;1.67;;;;;;;18.78;57.73;100054.78;2069001;28;20531;-62
2021/05/23 03:25:17;;;;;;;5.17;1.70;;;;;;;18.80;57.55;100052.78;2070943;28;20018;-61
2021/05/23 03:26:17;;;;;;;2.47;1.30;;;;;;;18.78;57.69;100047.44;2075232;28;20377;-61
2021/05/23 03:27:18;;;;;;;2.60;1.53;;;;;;;18.80;57.62;100058.22;2075889;28;20053;-61
2021/05/23 03:28:18;;;;;;;2.20;1.50;;;;;;;18.78;57.52;100061.09;2070473;28;20029;-61
2021/05/23 03:29:19;;;;;;;4.67;1.70;;;;;;;18.79;57.68;100057.38;2070878;28;20041;-61
2021/05/23 03:30:23;;;;;;;3.83;2.00;;;;;;;18.78;57.58;100055.63;2073873;28;20025;-61
2021/05/23 03:31:24;;;;;;;3.72;1.75;;;;;;;18.78;57.52;100058.38;2068875;28;20092;-62
2021/05/23 03:32:25;;;;;;;4.87;1.60;;;;;;;18.79;57.63;100059.22;2081744;28;20044;-62
2021/05/23 03:33:25;;;;;;;3.28;1.60;;;;;;;18.80;57.63;100050.88;2078839;28;20275;-62
2021/05/23 03:34:26;;;;;;;2.90;1.70;;;;;;;18.78;57.58;100055.63;2068632;28;20046;-61
2021/05/23 03:35:27;;;;;;;2.50;1.73;;;;;;;18.79;57.59;100057.38;2071687;28;20154;-61
2021/05/23 03:36:27;;;;;;;2.50;1.60;;;;;;;18.77;57.67;100053.94;2069220;28;20461;-62
2021/05/23 03:37:28;;;;;;;1.93;1.60;;;;;;;18.75;57.72;100045.00;2071690;28;20518;-61
2021/05/23 03:38:28;;;;;;;2.53;1.47;;;;;;;18.76;57.66;100046.72;2070549;28;20049;-61
2021/05/23 03:39:28;;;;;;;2.40;1.50;;;;;;;18.77;57.84;100064.00;2071064;28;20618;-61
2021/05/23 03:40:35;;;;;;;2.87;1.50;;;;;;;18.77;57.71;100064.84;2069650;28;20075;-61
2021/05/23 03:41:36;;;;;;;3.97;1.65;;;;;;;18.78;57.59;100072.03;2070271;28;20526;-61
2021/05/23 03:42:37;;;;;;;2.03;1.50;;;;;;;18.78;57.68;100066.56;2069965;28;20025;-61
2021/05/23 03:43:37;;;;;;;1.90;1.40;;;;;;;18.78;57.82;100069.28;2072585;28;20113;-60
2021/05/23 03:44:38;;;;;;;1.90;1.30;;;;;;;18.75;57.93;100066.84;2070615;28;20104;-61
2021/05/23 03:45:39;;;;;;;1.67;1.20;;;;;;;18.77;57.67;100058.53;2072284;28;20037;-61
2021/05/23 03:46:40;;;;;;;2.10;1.58;;;;;;;18.77;57.73;100069.47;2073451;28;20040;-61
2021/05/23 03:47:40;;;;;;;2.27;1.40;;;;;;;18.76;57.64;100067.72;2072641;28;20124;-60
2021/05/23 03:48:41;;;;;;;5.37;1.50;;;;;;;18.75;57.76;100061.38;2077502;28;20072;-61
2021/05/23 03:49:41;;;;;;;2.40;1.57;;;;;;;18.75;57.79;100061.38;2067895;28;20480;-61
2021/05/23 03:50:42;;;;;;;2.20;1.70;;;;;;;18.74;57.76;100059.66;2072617;28;20029;-61
2021/05/23 03:51:45;;;;;;;2.90;1.60;;;;;;;18.74;57.80;100065.13;2071045;28;20718;-61
2021/05/23 03:52:52;;;;;;;4.32;1.73;;;;;;;18.75;57.80;100058.63;2071859;28;20034;-61
2021/05/23 03:53:52;;;;;;;3.05;1.75;;;;;;;18.77;57.82;100059.38;2075188;28;20163;-61
2021/05/23 03:54:53;;;;;;;3.67;2.00;;;;;;;18.75;57.85;100057.78;2072452;28;20025;-61
2021/05/23 03:55:53;;;;;;;2.47;1.40;;;;;;;18.73;57.82;100052.47;2072382;28;20052;-61
2021/05/23 03:56:53;;;;;;;2.30;1.80;;;;;;;18.73;57.95;100057.06;2071307;28;20101;-61
2021/05/23 03:57:55;;;;;;;2.43;1.70;;;;;;;18.72;57.74;100056.22;2068660;28;20049;-61
2021/05/23 03:58:55;;;;;;;3.85;2.08;;;;;;;18.75;57.86;100049.59;2067831;28;20033;-61
2021/05/23 03:59:56;;;;;;;2.80;1.53;;;;;;;18.72;57.78;100056.22;2070816;28;20033;-62
2021/05/23 04:00:56;;;;;;;2.80;1.80;;;;;;;18.73;57.91;100047.00;2069561;28;20021;-61
2021/05/23 04:01:57;;;;;;;3.20;1.50;;;;;;;18.74;57.73;100053.31;2069925;28;20794;-61
2021/05/23 04:02:57;;;;;;;2.33;1.60;;;;;;;18.72;57.82;100048.03;2069821;28;20025;-62
2021/05/23 04:04:00;;;;;;;1.60;1.43;;;;;;;18.73;57.67;100047.00;2070525;28;20053;-61
2021/05/23 04:05:01;;;;;;;3.05;1.50;;;;;;;18.71;58.00;100043.56;2070733;28;20381;-61
2021/05/23 04:06:01;;;;;;;2.10;1.50;;;;;;;18.73;57.98;100046.16;2065891;28;20097;-61
2021/05/23 04:07:02;;;;;;;2.90;1.60;;;;;;;18.75;57.96;100046.88;2070783;28;20366;-61
2021/05/23 04:08:03;;;;;;;2.57;1.60;;;;;;;18.74;57.92;100047.84;2068175;28;20048;-61
2021/05/23 04:09:04;;;;;;;2.08;1.77;;;;;;;18.73;57.86;100046.16;2069618;28;20032;-61
2021/05/23 04:10:06;;;;;;;2.70;1.47;;;;;;;18.73;57.97;100051.59;2070940;28;20050;-61
2021/05/23 04:11:16;;;;;;;3.08;1.38;;;;;;;18.74;57.87;100065.13;2069472;28;20109;-61
2021/05/23 04:12:32;;;;;;;2.30;1.52;;;;;;;18.73;57.92;100065.25;2069826;28;20018;-61
2021/05/23 04:13:34;;;;;;;3.28;1.50;;;;;;;18.72;58.05;100063.56;2067502;28;20021;-61
2021/05/23 04:14:35;;;;;;;1.92;1.50;;;;;;;18.73;57.93;100068.00;2070767;28;20452;-61
2021/05/23 04:15:35;;;;;;;2.10;1.60;;;;;;;18.73;58.00;100071.56;2069821;28;20045;-62
2021/05/23 04:16:36;;;;;;;2.97;1.40;;;;;;;18.73;57.97;100074.31;2071214;28;20036;-61
2021/05/23 04:17:37;;;;;;;3.10;1.73;;;;;;;18.74;57.98;100076.03;2069926;28;20136;-61
2021/05/23 04:18:37;;;;;;;2.08;1.45;;;;;;;18.73;57.92;100074.31;2070437;28;20053;-61
2021/05/23 04:19:38;;;;;;;4.77;2.50;;;;;;;18.74;57.92;100075.16;2070508;28;20025;-61
2021/05/23 04:20:38;;;;;;;2.53;1.60;;;;;;;18.73;57.99;100079.78;2068395;28;20026;-61
2021/05/23 04:21:39;;;;;;;2.40;1.60;;;;;;;18.74;57.90;100076.03;2065840;28;20037;-61
2021/05/23 04:22:40;;;;;;;2.03;1.57;;;;;;;18.76;57.88;100089.56;2065907;28;20026;-61
2021/05/23 04:23:41;;;;;;;2.45;1.77;;;;;;;18.76;57.92;100084.09;2067018;28;20404;-60
2021/05/23 04:24:42;;;;;;;2.97;1.30;;;;;;;18.75;57.78;100094.13;2068058;28;20030;-61
2021/05/23 04:25:42;;;;;;;2.43;1.60;;;;;;;18.74;57.93;100089.69;2070493;28;20108;-61
2021/05/23 04:26:43;;;;;;;1.87;1.40;;;;;;;18.75;57.86;100083.22;2070270;28;20112;-61
2021/05/23 04:27:46;;;;;;;2.50;1.87;;;;;;;18.74;58.00;100080.63;2069144;28;20049;-61
2021/05/23 04:28:46;;;;;;;2.05;1.75;;;;;;;18.73;58.01;100077.03;2070386;28;20088;-61
2021/05/23 04:29:47;;;;;;;4.67;2.07;;;;;;;18.74;57.83;100080.63;2067097;28;20053;-61
2021/05/23 04:30:47;;;;;;;2.77;1.33;;;;;;;18.74;57.97;100086.97;2069873;28;20030;-61
2021/05/23 04:31:48;;;;;;;2.87;1.77;;;;;;;18.74;57.82;100081.50;2068807;28;20133;-61
2021/05/23 04:32:48;;;;;;;2.73;1.80;;;;;;;18.75;57.80;100082.38;2070581;28;20670;-61
2021/05/23 04:33:49;;;;;;;3.23;1.50;;;;;;;18.75;58.00;100077.75;2069968;28;20039;-61
2021/05/23 04:34:49;;;;;;;1.93;1.33;;;;;;;18.74;57.98;100080.63;2061490;28;20030;-61
2021/05/23 04:35:51;;;;;;;2.43;1.50;;;;;;;18.75;57.79;100088.69;2061174;28;20041;-61
2021/05/23 04:36:52;;;;;;;2.10;1.20;;;;;;;18.76;57.95;100093.16;2065729;28;20030;-63
2021/05/23 04:37:54;;;;;;;3.10;1.38;;;;;;;18.75;58.04;100094.13;2068386;28;20049;-63
2021/05/23 04:38:54;;;;;;;;;;;;;;;18.71;58.06;100092.69;2069459;28;20514;-63
2021/05/23 04:39:55;;;;;;;1.80;1.48;;;;;;;18.71;57.85;100098.16;2069796;28;19975;-63
2021/05/23 04:40:55;;;;;;;2.90;1.43;;;;;;;18.71;58.06;100098.16;2066582;28;20346;-63
2021/05/23 04:41:56;;;;;;;3.93;1.10;;;;;;;18.69;57.87;100083.81;2069645;28;20025;-63
2021/05/23 04:42:56;;;;;;;2.57;1.73;;;;;;;18.68;57.83;100090.28;2058672;28;20030;-63
2021/05/23 04:43:57;;;;;;;2.40;1.80;;;;;;;18.69;57.78;100089.28;2060588;28;20224;-63
2021/05/23 04:44:57;;;;;;;2.43;1.63;;;;;;;18.66;57.78;100084.09;2066642;28;20025;-63
2021/05/23 04:45:57;;;;;;;2.10;1.07;;;;;;;18.66;57.72;100084.09;2069643;28;20508;-63
2021/05/23 04:46:58;;;;;;;1.70;1.30;;;;;;;18.65;57.85;100076.94;2066041;28;20030;-63
2021/05/23 04:47:58;;;;;;;3.40;1.67;;;;;;;18.66;57.86;100077.78;2062623;28;20394;-63
2021/05/23 04:48:59;;;;;;;2.53;1.57;;;;;;;18.65;57.86;100076.94;2069583;28;20061;-63